KBHM

Birmingham-Shuttlesworth International Airport

Airport
ICAO code
KBHM
IATA Code
BHM
Summary
ICAO Region
NAM
ICAO Territory
Location

Birmingham, Alabama,

Serving
Birmingham
Elevation
644 ft
Coordinates
33° 33' 44" N , 86° 45' 4" W
KCC
Cfa
Metar
Observation
KBHM 131453Z 00000KT 10SM FEW250 27/19 A3012 RMK AO2 SLP190 T02670189 51012
Station
Birmingham, Birmingham International Airport
Date/Time
2022-08-13 14:53:00
Wind direction
Wind speed
00 kts
Lowest cloud amount
few clouds
Temperature
26.7°C
Dew point
18.9°C
Humidity
62%
Weather condition
n/a

Description

Civil/Military (USAF) international airport serving the city of Birmingham and central Alabama, USA.

Climatology

Humid “subtropical” climate (Köppen climate classification Cfa) - characterized by hot, humid summers and cool winters. Significant amounts of precipitation occur in all seasons in most areas. Winter rainfall (and sometimes snowfall) is associated with large storms that the westerlies steer from west to east. Most summer rainfall occurs during thunderstorms and occasional tropical storms (hurricanes).

Airport map

Aerial View

SKYbrary Partners:

Safety knowledge contributed by: